createdAt,value
2022-08-01T00:04:16.246Z,15.60
2022-08-01T00:09:24.715Z,20.30
2022-08-01T00:14:32.659Z,13.70
2022-08-01T00:19:37.406Z,14.20
2022-08-01T00:24:41.703Z,12.90
2022-08-01T00:30:10.064Z,7.80
2022-08-01T00:35:15.160Z,10.00
2022-08-01T00:40:19.181Z,20.90
2022-08-01T00:45:23.351Z,21.10
2022-08-01T00:50:27.922Z,8.00
2022-08-01T00:55:35.138Z,15.20
2022-08-01T01:00:53.956Z,18.30
2022-08-01T01:06:37.170Z,15.30
2022-08-01T01:12:07.246Z,12.40
2022-08-01T01:17:13.982Z,9.10
2022-08-01T01:22:46.070Z,10.50
2022-08-01T01:28:22.994Z,10.50
2022-08-01T01:33:33.466Z,11.40
2022-08-01T01:38:47.093Z,16.50
2022-08-01T01:43:52.667Z,24.90
2022-08-01T01:48:58.482Z,16.30
2022-08-01T01:54:04.641Z,18.70
2022-08-01T01:59:10.320Z,41.00
2022-08-01T02:04:16.283Z,14.50
2022-08-01T02:09:23.317Z,19.80
2022-08-01T02:14:32.070Z,28.50
2022-08-01T02:19:38.345Z,16.70
2022-08-01T02:25:04.121Z,27.80
2022-08-01T02:30:13.626Z,30.90
2022-08-01T02:35:30.089Z,12.00
2022-08-01T02:40:39.635Z,16.30
2022-08-01T02:45:51.368Z,20.20
2022-08-01T02:51:01.583Z,34.40
2022-08-01T02:56:12.175Z,15.50
2022-08-01T03:01:19.546Z,25.10
2022-08-01T03:06:26.892Z,8.60
2022-08-01T03:11:34.001Z,21.20
2022-08-01T03:16:43.535Z,28.90
2022-08-01T03:21:52.392Z,15.80
2022-08-01T03:26:59.855Z,16.00
2022-08-01T03:32:05.806Z,22.40
2022-08-01T03:37:27.157Z,23.00
2022-08-01T03:42:41.026Z,22.50
2022-08-01T03:47:48.422Z,14.10
2022-08-01T03:52:56.467Z,24.80
2022-08-01T03:58:05.146Z,22.90
2022-08-01T04:03:15.177Z,23.90
2022-08-01T04:08:20.487Z,23.40
2022-08-01T04:13:24.771Z,15.90
2022-08-01T04:18:36.551Z,23.40
2022-08-01T04:23:47.241Z,31.80
2022-08-01T04:28:58.257Z,28.00
2022-08-01T04:34:07.900Z,31.80
2022-08-01T04:39:13.836Z,31.60
2022-08-01T04:44:18.116Z,29.50
2022-08-01T04:49:23.775Z,27.50
2022-08-01T04:54:38.476Z,23.10
2022-08-01T04:59:46.541Z,21.00
2022-08-01T05:04:51.339Z,20.80
2022-08-01T05:09:57.260Z,20.80
2022-08-01T05:15:02.050Z,26.90
2022-08-01T05:20:12.401Z,18.20
2022-08-01T05:25:17.956Z,18.20
2022-08-01T05:30:25.378Z,21.90
2022-08-01T05:35:48.663Z,15.60
2022-08-01T05:40:53.876Z,12.00
2022-08-01T05:45:59.884Z,16.30
2022-08-01T05:51:06.765Z,13.90
2022-08-01T05:56:11.613Z,11.00
2022-08-01T06:01:16.400Z,21.70
2022-08-01T06:06:20.699Z,13.10
2022-08-01T06:11:30.065Z,14.00
2022-08-01T06:16:34.705Z,13.00
2022-08-01T06:21:39.269Z,13.90
2022-08-01T06:26:43.910Z,16.10
2022-08-01T06:31:48.038Z,9.80
2022-08-01T06:36:55.130Z,8.00
2022-08-01T06:41:59.649Z,9.70
2022-08-01T06:47:04.705Z,11.20
2022-08-01T06:52:09.517Z,4.80
2022-08-01T06:57:14.036Z,8.40
2022-08-01T07:02:18.342Z,11.20
2022-08-01T07:07:22.708Z,5.00
2022-08-01T07:12:27.149Z,7.60
2022-08-01T07:17:31.655Z,8.90
2022-08-01T07:22:37.180Z,7.40
2022-08-01T07:27:41.513Z,5.50
2022-08-01T07:32:46.765Z,6.00
2022-08-01T07:37:51.366Z,4.30
2022-08-01T07:42:55.758Z,3.60
2022-08-01T07:48:09.060Z,5.20
2022-08-01T07:53:13.795Z,6.70
2022-08-01T07:58:19.756Z,4.50
2022-08-01T08:03:23.970Z,4.00
2022-08-01T08:08:28.960Z,4.60
2022-08-01T08:13:33.182Z,6.30
2022-08-01T08:18:37.333Z,6.20
2022-08-01T08:24:01.083Z,8.30
2022-08-01T08:29:05.927Z,5.80
2022-08-01T08:34:10.483Z,12.20
2022-08-01T08:39:14.725Z,4.20
2022-08-01T08:44:21.586Z,9.70
2022-08-01T08:49:35.865Z,6.30
2022-08-01T08:54:43.144Z,3.00
2022-08-01T08:59:55.668Z,3.80
2022-08-01T09:05:00.682Z,4.00
2022-08-01T09:10:09.543Z,4.90
2022-08-01T09:15:16.418Z,6.20
2022-08-01T09:20:30.149Z,8.70
2022-08-01T09:25:56.795Z,5.60
2022-08-01T09:31:38.150Z,6.60
2022-08-01T09:36:56.787Z,3.90
2022-08-01T09:42:29.516Z,6.80
2022-08-01T09:47:41.183Z,3.90
2022-08-01T09:52:57.695Z,3.80
2022-08-01T09:58:06.742Z,5.50
2022-08-01T10:03:31.038Z,3.20
2022-08-01T10:08:49.382Z,4.60
2022-08-01T10:13:54.882Z,4.50
2022-08-01T10:19:01.088Z,3.00
2022-08-01T10:24:10.164Z,3.00
2022-08-01T10:29:45.091Z,2.10
2022-08-01T10:34:48.439Z,3.80
2022-08-01T10:40:27.220Z,4.30
2022-08-01T10:45:24.201Z,3.40
2022-08-01T10:50:40.537Z,6.80
2022-08-01T10:56:10.446Z,6.70
2022-08-01T11:01:17.226Z,6.40
2022-08-01T11:06:44.962Z,5.20
2022-08-01T11:12:24.497Z,4.50
2022-08-01T11:17:42.327Z,5.40
2022-08-01T11:28:32.346Z,3.80
2022-08-01T11:33:46.013Z,5.50
2022-08-01T11:39:14.342Z,3.30
2022-08-01T11:44:30.574Z,2.50
2022-08-01T11:49:56.972Z,7.30
2022-08-01T11:55:10.079Z,10.30
2022-08-01T12:00:20.429Z,5.40
2022-08-01T12:05:25.392Z,7.70
2022-08-01T12:10:47.231Z,11.20
2022-08-01T12:15:57.005Z,4.80
2022-08-01T12:21:07.197Z,1.80
2022-08-01T12:26:28.555Z,4.60
2022-08-01T12:31:37.042Z,6.50
2022-08-01T12:36:41.620Z,3.40
2022-08-01T12:41:46.875Z,4.90
2022-08-01T12:46:52.234Z,7.20
2022-08-01T12:51:58.130Z,1.90
2022-08-01T12:57:03.660Z,5.90
2022-08-01T13:02:12.684Z,32.90
2022-08-01T13:07:17.084Z,14.30
2022-08-01T13:12:21.209Z,8.80
2022-08-01T13:17:41.538Z,10.10
2022-08-01T13:22:45.671Z,4.40
2022-08-01T13:28:10.237Z,4.80
2022-08-01T13:33:16.169Z,8.60
2022-08-01T13:38:43.831Z,2.60
2022-08-01T13:43:58.251Z,10.60
2022-08-01T13:49:07.032Z,9.00
2022-08-01T13:54:20.683Z,3.20
2022-08-01T13:59:24.994Z,6.40
2022-08-01T14:04:30.193Z,7.70
2022-08-01T14:09:35.207Z,4.90
2022-08-01T14:14:50.257Z,7.30
2022-08-01T14:19:54.730Z,2.90
2022-08-01T14:25:01.481Z,8.60
2022-08-01T14:30:09.767Z,3.90
2022-08-01T14:35:13.741Z,10.40
2022-08-01T14:40:21.612Z,2.90
2022-08-01T14:45:26.930Z,8.20
2022-08-01T14:50:32.327Z,2.80
2022-08-01T14:55:41.784Z,10.70
2022-08-01T15:00:47.311Z,2.50
2022-08-01T15:05:54.610Z,4.90
2022-08-01T15:10:59.169Z,2.30
2022-08-01T15:16:03.690Z,13.80
2022-08-01T15:21:07.953Z,5.20
2022-08-01T15:26:15.662Z,6.40
2022-08-01T15:31:21.961Z,2.90
2022-08-01T15:36:26.559Z,8.30
2022-08-01T15:41:31.021Z,3.50
2022-08-01T15:46:35.438Z,4.60
2022-08-01T15:51:40.321Z,4.00
2022-08-01T15:56:45.156Z,5.00
2022-08-01T16:01:51.164Z,3.00
2022-08-01T16:06:56.016Z,7.30
2022-08-01T16:12:00.372Z,3.90
2022-08-01T16:17:04.784Z,2.80
2022-08-01T16:22:09.308Z,4.00
2022-08-01T16:27:13.914Z,8.70
2022-08-01T16:32:27.405Z,2.60
2022-08-01T16:37:35.726Z,1.50
2022-08-01T16:42:39.963Z,4.90
2022-08-01T16:47:44.188Z,1.90
2022-08-01T16:52:48.837Z,1.70
2022-08-01T16:57:53.450Z,3.40
2022-08-01T17:02:57.828Z,5.60
2022-08-01T17:08:02.729Z,4.80
2022-08-01T17:13:07.688Z,4.30
2022-08-01T17:18:14.293Z,2.00
2022-08-01T17:23:19.836Z,1.90
2022-08-01T17:28:23.953Z,2.30
2022-08-01T17:33:45.529Z,7.20
2022-08-01T17:38:51.108Z,2.90
2022-08-01T17:43:55.529Z,15.40
2022-08-01T17:49:02.505Z,9.60
2022-08-01T17:54:06.903Z,4.20
2022-08-01T17:59:11.476Z,5.00
2022-08-01T18:04:15.671Z,6.40
2022-08-01T18:09:20.212Z,6.60
2022-08-01T18:14:32.570Z,10.30
2022-08-01T18:19:46.664Z,13.70
2022-08-01T18:24:51.130Z,7.30
2022-08-01T18:29:55.519Z,6.70
2022-08-01T18:35:00.359Z,14.80
2022-08-01T18:40:08.863Z,7.10
2022-08-01T18:45:14.726Z,3.10
2022-08-01T18:50:25.175Z,4.90
2022-08-01T18:55:29.910Z,9.10
2022-08-01T19:00:34.311Z,4.60
2022-08-01T19:05:38.849Z,4.20
2022-08-01T19:10:43.407Z,3.70
2022-08-01T19:15:47.889Z,3.90
2022-08-01T19:20:53.361Z,6.70
2022-08-01T19:26:07.902Z,11.90
2022-08-01T19:31:16.011Z,7.60
2022-08-01T19:36:21.182Z,3.80
2022-08-01T19:41:25.296Z,6.00
2022-08-01T19:46:31.022Z,6.10
2022-08-01T19:51:43.467Z,5.00
2022-08-01T19:56:51.018Z,13.30
2022-08-01T20:01:55.661Z,7.40
2022-08-01T20:07:00.236Z,7.30
2022-08-01T20:12:04.775Z,8.60
2022-08-01T20:17:09.712Z,7.00
2022-08-01T20:22:16.128Z,10.50
2022-08-01T20:27:24.707Z,13.20
2022-08-01T20:32:38.042Z,9.20
2022-08-01T20:38:05.602Z,11.60
2022-08-01T20:43:10.429Z,14.10
2022-08-01T20:48:17.965Z,6.20
2022-08-01T20:53:24.176Z,8.10
2022-08-01T20:59:54.438Z,5.70
2022-08-01T21:05:03.556Z,10.60
2022-08-01T21:10:12.317Z,12.40
2022-08-01T21:15:32.074Z,9.90
2022-08-01T21:20:47.105Z,8.60
2022-08-01T21:25:53.775Z,14.20
2022-08-01T21:30:59.885Z,26.00
2022-08-01T21:36:06.662Z,12.00
2022-08-01T21:41:11.901Z,10.70
2022-08-01T21:46:18.689Z,10.50
2022-08-01T21:51:52.037Z,10.40
2022-08-01T21:57:32.205Z,9.90
2022-08-01T22:02:45.175Z,12.10
2022-08-01T22:07:57.011Z,6.50
2022-08-01T22:13:01.546Z,9.00
2022-08-01T22:18:06.123Z,11.40
2022-08-01T22:23:11.582Z,10.00
2022-08-01T22:28:20.452Z,9.20
2022-08-01T22:33:25.977Z,5.50
2022-08-01T22:38:30.313Z,8.40
2022-08-01T22:44:08.155Z,6.90
2022-08-01T22:49:19.639Z,12.50
2022-08-01T22:54:41.352Z,8.60
2022-08-01T23:00:06.140Z,23.70
2022-08-01T23:05:19.161Z,13.70
2022-08-01T23:10:26.435Z,14.20
2022-08-01T23:15:32.250Z,26.70
2022-08-01T23:20:40.647Z,17.50
2022-08-01T23:25:48.872Z,15.10
2022-08-01T23:30:54.384Z,14.80
2022-08-01T23:35:58.409Z,17.90
2022-08-01T23:41:02.481Z,12.20
2022-08-01T23:46:06.615Z,13.40
2022-08-01T23:51:17.279Z,12.90
2022-08-01T23:56:29.550Z,15.00
